Currently 43°F in Pinon Hills, California, USA
43°F
46°F / 43°F
3 mph SW
0.00"
Monday, March 25, 2019 7:15 AM PDT

Pinon Hills, California Weather Summary
Last 36 Hours

Temperature Winds Hourly Humidity Dewpoint
Time Report Norm Report Norm Max Gusts Precip. Rpt. Norm Rpt. Norm Pressure
1Mon 07:15 AM  43.2°F  47°F  3 mph SW  3 mph  6 mph  0.00"  42%  55%  20°F  31°F  30.16"
Mon 07:00 AM  43.1°F  46°F  4 mph SW  3 mph  6 mph  0.00"  40%  56%  19°F  30°F  30.17"
Mon 06:00 AM  43.1°F  46°F  3 mph SW  3 mph  7 mph  0.00"  40%  56%  19°F  30°F  30.16"
Mon 05:00 AM  43.3°F  46°F  4 mph SW  3 mph  8 mph  0.00"  36%  55%  17°F  30°F  30.15"
3Mon 04:45 AM  42.6°F  46°F  4 mph SW  3 mph  5 mph  ----  38%  55%  18°F  30°F  30.15"
Mon 04:00 AM  45.0°F  47°F  4 mph SW  2 mph  9 mph  0.00"  37%  55%  19°F  31°F  30.16"
2Mon 03:30 AM  46.2°F  47°F  4 mph SW  3 mph  8 mph  ----  32%  54%  17°F  31°F  30.16"
Mon 03:00 AM  45.2°F  47°F  5 mph SW  3 mph  8 mph  0.00"  36%  53%  18°F  30°F  30.16"
Mon 02:00 AM  45.3°F  48°F  3 mph SW  3 mph  5 mph  0.00"  49%  53%  26°F  31°F  30.17"
Mon 01:00 AM  45.1°F  48°F  2 mph SW  3 mph  4 mph  0.00"  50%  53%  26°F  31°F  30.18"
Mon 12:00 AM  45.8°F  49°F  2 mph SW  2 mph  5 mph  0.00"  52%  51%  28°F  31°F  30.18"
Sun 11:00 PM  46.8°F  50°F  2 mph SW  3 mph  5 mph  0.00"  53%  51%  30°F  32°F  30.19"
Sun 10:00 PM  47.2°F  51°F  4 mph SW  3 mph  5 mph  0.00"  52%  50%  30°F  32°F  30.19"
Sun 09:00 PM  49.1°F  51°F  3 mph SW  3 mph  7 mph  0.00"  49%  50%  30°F  32°F  30.19"
Sun 08:00 PM  50.8°F  53°F  4 mph SW  3 mph  7 mph  0.00"  47%  47%  30°F  33°F  30.18"
Sun 07:00 PM  55.5°F  57°F  2 mph W  3 mph  4 mph  0.00"  42%  42%  32°F  33°F  30.16"
Sun 06:00 PM  59.7°F  61°F  calm  5 mph  none  0.00"  34%  36%  30°F  33°F  30.15"
Sun 05:00 PM  61.9°F  63°F  calm  5 mph  none  0.00"  28%  33%  27°F  32°F  30.14"
Sun 04:00 PM  61.6°F  64°F  calm  4 mph  none  0.00"  34%  32%  32°F  32°F  30.15"
Sun 03:00 PM  60.8°F  64°F  calm  4 mph  1 mph  0.00"  35%  32%  32°F  32°F  30.16"
Sun 02:00 PM  60.1°F  63°F  calm  4 mph  11 mph  0.00"  38%  32%  34°F  32°F  30.16"
Sun 01:00 PM  58.0°F  62°F  4 mph SE  4 mph  10 mph  0.00"  42%  34%  34°F  32°F  30.18"
Sun 12:00 PM  57.0°F  60°F  3 mph E  4 mph  12 mph  0.00"  43%  36%  34°F  33°F  30.19"
Sun 11:00 AM  54.2°F  59°F  6 mph SE  4 mph  9 mph  0.00"  47%  38%  34°F  33°F  30.19"
Sun 10:00 AM  50.7°F  57°F  3 mph NE  4 mph  6 mph  0.00"  46%  42%  30°F  33°F  30.18"
Sun 09:00 AM  47.5°F  55°F  1 mph NE  3 mph  7 mph  0.00"  55%  45%  32°F  33°F  30.18"
Sun 08:00 AM  43.0°F  50°F  3 mph NW  2 mph  6 mph  0.00"  54%  52%  27°F  33°F  30.16"
Sun 07:00 AM  35.8°F  46°F  4 mph W  3 mph  7 mph  0.00"  63%  55%  24°F  30°F  30.15"
Sun 06:00 AM  33.8°F  46°F  3 mph SW  3 mph  6 mph  0.00"  77%  55%  27°F  30°F  30.13"
Sun 05:00 AM  33.4°F  47°F  calm  3 mph  5 mph  0.00"  83%  54%  28°F  30°F  30.13"
Sun 04:00 AM  35.3°F  47°F  2 mph SW  2 mph  7 mph  0.00"  74%  54%  27°F  30°F  30.12"
Sun 03:00 AM  36.6°F  47°F  calm  2 mph  6 mph  0.00"  71%  53%  28°F  30°F  30.12"
Sun 02:00 AM  37.5°F  48°F  1 mph SW  2 mph  9 mph  0.00"  78%  53%  31°F  31°F  30.11"
Sun 01:00 AM  38.7°F  48°F  2 mph SW  2 mph  7 mph  0.00"  75%  53%  31°F  31°F  30.10"
Sun 12:00 AM  41.5°F  49°F  2 mph W  2 mph  12 mph  0.00"  68%  51%  31°F  31°F  30.08"
Sat 11:00 PM  42.3°F  50°F  3 mph W  3 mph  8 mph  0.00"  78%  51%  36°F  31°F  30.08"
Sat 10:00 PM  40.7°F  51°F  3 mph SW  3 mph  8 mph  0.00"  90%  50%  38°F  32°F  30.10"
Sat 09:00 PM  43.9°F  51°F  4 mph NW  3 mph  13 mph  0.00"  94%  49%  42°F  32°F  30.09"
Sat 08:00 PM  45.9°F  53°F  5 mph W  3 mph  12 mph  0.00"  87%  47%  42°F  32°F  30.08"

  1. Current weather data. No green row appears if the current weather data is also the high or low for the current day.
  2. High temperature for the current day.
  3. Low temperature for the current day.

The Pinon Hills, California weather pages are a service of WeatherCurrents.
Copyright ©Mon Mar 25 07:15:41 PDT 2019  WeatherCurrents. All rights reserved. - Submit questions and comments - Privacy Policy

This page automatically refreshes every 10 minutes.